sensor_id;sensor_type;location;lat;lon;timestamp;P1;durP1;ratioP1;P2;durP2;ratioP2
17173;SDS011;8702;48.130;-1.696;2023-04-15T00:27:13;931.95;;;852.10;;
17173;SDS011;8702;48.130;-1.696;2023-04-15T05:12:13;958.90;;;878.03;;
17173;SDS011;8702;48.130;-1.696;2023-04-15T08:06:40;12.48;;;3.20;;
17173;SDS011;8702;48.130;-1.696;2023-04-15T08:09:07;12.33;;;3.47;;
17173;SDS011;8702;48.130;-1.696;2023-04-15T08:11:34;12.97;;;3.03;;
17173;SDS011;8702;48.130;-1.696;2023-04-15T08:14:01;12.20;;;3.07;;
17173;SDS011;8702;48.130;-1.696;2023-04-15T08:16:28;8.50;;;3.47;;
17173;SDS011;8702;48.130;-1.696;2023-04-15T08:18:55;14.30;;;3.17;;
17173;SDS011;8702;48.130;-1.696;2023-04-15T08:21:23;10.33;;;3.20;;
17173;SDS011;8702;48.130;-1.696;2023-04-15T08:23:51;11.67;;;2.93;;
17173;SDS011;8702;48.130;-1.696;2023-04-15T08:26:19;7.03;;;2.33;;
17173;SDS011;8702;48.130;-1.696;2023-04-15T08:28:46;11.37;;;3.03;;
17173;SDS011;8702;48.130;-1.696;2023-04-15T08:31:14;10.10;;;3.10;;
17173;SDS011;8702;48.130;-1.696;2023-04-15T08:33:42;9.97;;;3.13;;
17173;SDS011;8702;48.130;-1.696;2023-04-15T08:36:10;10.50;;;2.43;;
17173;SDS011;8702;48.130;-1.696;2023-04-15T08:38:37;10.93;;;2.80;;
17173;SDS011;8702;48.130;-1.696;2023-04-15T08:41:09;10.93;;;2.57;;
17173;SDS011;8702;48.130;-1.696;2023-04-15T08:43:46;5.70;;;2.03;;
17173;SDS011;8702;48.130;-1.696;2023-04-15T08:46:18;7.03;;;2.03;;
17173;SDS011;8702;48.130;-1.696;2023-04-15T08:48:45;6.97;;;1.70;;
17173;SDS011;8702;48.130;-1.696;2023-04-15T08:51:14;7.23;;;2.13;;
17173;SDS011;8702;48.130;-1.696;2023-04-15T08:53:43;5.63;;;2.30;;
17173;SDS011;8702;48.130;-1.696;2023-04-15T08:56:13;8.77;;;2.40;;
17173;SDS011;8702;48.130;-1.696;2023-04-15T08:58:40;5.27;;;1.83;;
17173;SDS011;8702;48.130;-1.696;2023-04-15T09:01:08;7.33;;;2.03;;
17173;SDS011;8702;48.130;-1.696;2023-04-15T09:03:37;6.30;;;1.73;;
17173;SDS011;8702;48.130;-1.696;2023-04-15T09:06:04;5.30;;;1.63;;
17173;SDS011;8702;48.130;-1.696;2023-04-15T09:08:31;6.33;;;2.07;;
17173;SDS011;8702;48.130;-1.696;2023-04-15T09:11:00;7.63;;;1.93;;
17173;SDS011;8702;48.130;-1.696;2023-04-15T09:13:28;6.90;;;2.03;;
17173;SDS011;8702;48.130;-1.696;2023-04-15T09:15:56;6.00;;;1.80;;
17173;SDS011;8702;48.130;-1.696;2023-04-15T09:18:26;5.10;;;2.10;;
17173;SDS011;8702;48.130;-1.696;2023-04-15T09:20:54;3.63;;;1.60;;
17173;SDS011;8702;48.130;-1.696;2023-04-15T09:23:24;6.80;;;2.00;;
17173;SDS011;8702;48.130;-1.696;2023-04-15T09:25:51;6.23;;;2.10;;
17173;SDS011;8702;48.130;-1.696;2023-04-15T09:28:22;5.60;;;2.10;;
17173;SDS011;8702;48.130;-1.696;2023-04-15T09:30:52;6.87;;;2.17;;
17173;SDS011;8702;48.130;-1.696;2023-04-15T09:33:22;7.97;;;2.40;;
17173;SDS011;8702;48.130;-1.696;2023-04-15T09:35:56;5.70;;;2.13;;
17173;SDS011;8702;48.130;-1.696;2023-04-15T09:38:25;8.20;;;1.73;;
17173;SDS011;8702;48.130;-1.696;2023-04-15T09:40:52;6.10;;;1.90;;
17173;SDS011;8702;48.130;-1.696;2023-04-15T09:43:20;6.50;;;2.13;;
17173;SDS011;8702;48.130;-1.696;2023-04-15T09:45:47;6.73;;;2.00;;
17173;SDS011;8702;48.130;-1.696;2023-04-15T09:48:18;7.83;;;1.90;;
17173;SDS011;8702;48.130;-1.696;2023-04-15T09:50:46;7.17;;;1.80;;
17173;SDS011;8702;48.130;-1.696;2023-04-15T09:53:15;4.07;;;1.20;;
17173;SDS011;8702;48.130;-1.696;2023-04-15T09:55:44;5.67;;;1.53;;
17173;SDS011;8702;48.130;-1.696;2023-04-15T09:58:16;6.20;;;1.63;;
17173;SDS011;8702;48.130;-1.696;2023-04-15T10:00:44;4.20;;;1.40;;
17173;SDS011;8702;48.130;-1.696;2023-04-15T10:03:14;7.30;;;1.60;;
17173;SDS011;8702;48.130;-1.696;2023-04-15T10:05:46;3.27;;;1.30;;
17173;SDS011;8702;48.130;-1.696;2023-04-15T10:08:14;4.93;;;1.57;;
17173;SDS011;8702;48.130;-1.696;2023-04-15T10:10:43;5.87;;;1.57;;
17173;SDS011;8702;48.130;-1.696;2023-04-15T10:13:12;6.67;;;1.77;;
17173;SDS011;8702;48.130;-1.696;2023-04-15T10:15:41;7.43;;;2.07;;
17173;SDS011;8702;48.130;-1.696;2023-04-15T10:18:11;6.57;;;2.00;;
17173;SDS011;8702;48.130;-1.696;2023-04-15T10:20:44;5.47;;;1.73;;
17173;SDS011;8702;48.130;-1.696;2023-04-15T10:23:13;4.33;;;1.70;;
17173;SDS011;8702;48.130;-1.696;2023-04-15T10:25:40;4.87;;;1.50;;
17173;SDS011;8702;48.130;-1.696;2023-04-15T10:28:08;6.87;;;1.70;;
17173;SDS011;8702;48.130;-1.696;2023-04-15T10:30:35;5.17;;;1.60;;
17173;SDS011;8702;48.130;-1.696;2023-04-15T10:33:02;2.57;;;1.50;;
17173;SDS011;8702;48.130;-1.696;2023-04-15T10:35:31;3.27;;;1.53;;
17173;SDS011;8702;48.130;-1.696;2023-04-15T10:38:00;4.73;;;1.73;;
17173;SDS011;8702;48.130;-1.696;2023-04-15T10:40:27;4.00;;;1.50;;
17173;SDS011;8702;48.130;-1.696;2023-04-15T10:42:57;7.57;;;1.47;;
17173;SDS011;8702;48.130;-1.696;2023-04-15T10:45:25;4.20;;;1.37;;
17173;SDS011;8702;48.130;-1.696;2023-04-15T10:47:56;4.77;;;1.43;;
17173;SDS011;8702;48.130;-1.696;2023-04-15T10:50:27;5.57;;;1.67;;
17173;SDS011;8702;48.130;-1.696;2023-04-15T10:52:56;2.33;;;1.20;;
17173;SDS011;8702;48.130;-1.696;2023-04-15T10:55:25;6.03;;;1.70;;
17173;SDS011;8702;48.130;-1.696;2023-04-15T10:57:58;2.97;;;1.37;;
17173;SDS011;8702;48.130;-1.696;2023-04-15T11:00:27;4.10;;;1.37;;
17173;SDS011;8702;48.130;-1.696;2023-04-15T11:02:55;3.90;;;1.47;;
17173;SDS011;8702;48.130;-1.696;2023-04-15T11:05:47;5.13;;;1.73;;
17173;SDS011;8702;48.130;-1.696;2023-04-15T11:08:15;3.57;;;1.30;;
17173;SDS011;8702;48.130;-1.696;2023-04-15T11:10:52;7.00;;;1.60;;
17173;SDS011;8702;48.130;-1.696;2023-04-15T11:13:22;4.10;;;1.17;;
17173;SDS011;8702;48.130;-1.696;2023-04-15T11:15:54;4.17;;;1.47;;
17173;SDS011;8702;48.130;-1.696;2023-04-15T11:18:26;2.70;;;1.27;;
17173;SDS011;8702;48.130;-1.696;2023-04-15T11:20:56;5.27;;;1.50;;
17173;SDS011;8702;48.130;-1.696;2023-04-15T11:23:27;4.30;;;1.50;;
17173;SDS011;8702;48.130;-1.696;2023-04-15T11:26:01;4.83;;;1.30;;
17173;SDS011;8702;48.130;-1.696;2023-04-15T11:28:31;2.63;;;1.70;;
17173;SDS011;8702;48.130;-1.696;2023-04-15T11:31:04;3.63;;;1.47;;
17173;SDS011;8702;48.130;-1.696;2023-04-15T11:33:32;2.07;;;1.20;;
17173;SDS011;8702;48.130;-1.696;2023-04-15T11:35:59;3.80;;;1.53;;
17173;SDS011;8702;48.130;-1.696;2023-04-15T11:38:29;5.20;;;1.40;;
17173;SDS011;8702;48.130;-1.696;2023-04-15T11:40:56;2.20;;;1.33;;
17173;SDS011;8702;48.130;-1.696;2023-04-15T11:43:25;4.10;;;1.77;;
17173;SDS011;8702;48.130;-1.696;2023-04-15T11:45:52;2.07;;;1.20;;
17173;SDS011;8702;48.130;-1.696;2023-04-15T11:48:21;6.33;;;1.50;;
17173;SDS011;8702;48.130;-1.696;2023-04-15T11:50:53;6.83;;;1.40;;
17173;SDS011;8702;48.130;-1.696;2023-04-15T11:53:21;2.80;;;1.17;;
17173;SDS011;8702;48.130;-1.696;2023-04-15T11:55:50;3.80;;;1.30;;
17173;SDS011;8702;48.130;-1.696;2023-04-15T11:58:19;3.83;;;1.77;;
17173;SDS011;8702;48.130;-1.696;2023-04-15T12:00:49;3.47;;;1.53;;
17173;SDS011;8702;48.130;-1.696;2023-04-15T12:03:20;8.50;;;1.70;;
17173;SDS011;8702;48.130;-1.696;2023-04-15T12:06:08;4.77;;;1.70;;
17173;SDS011;8702;48.130;-1.696;2023-04-15T12:08:47;3.70;;;1.10;;
17173;SDS011;8702;48.130;-1.696;2023-04-15T12:11:15;4.40;;;1.67;;
17173;SDS011;8702;48.130;-1.696;2023-04-15T12:13:42;6.43;;;1.87;;
17173;SDS011;8702;48.130;-1.696;2023-04-15T12:16:11;5.40;;;1.80;;
17173;SDS011;8702;48.130;-1.696;2023-04-15T12:18:38;5.40;;;1.70;;
17173;SDS011;8702;48.130;-1.696;2023-04-15T12:21:08;6.20;;;1.80;;
17173;SDS011;8702;48.130;-1.696;2023-04-15T12:23:36;2.50;;;1.30;;
17173;SDS011;8702;48.130;-1.696;2023-04-15T12:26:03;3.50;;;1.30;;
17173;SDS011;8702;48.130;-1.696;2023-04-15T12:28:31;6.73;;;1.70;;
17173;SDS011;8702;48.130;-1.696;2023-04-15T12:30:59;5.77;;;1.43;;
17173;SDS011;8702;48.130;-1.696;2023-04-15T12:33:33;3.17;;;1.40;;
17173;SDS011;8702;48.130;-1.696;2023-04-15T12:36:00;4.80;;;1.67;;
17173;SDS011;8702;48.130;-1.696;2023-04-15T12:38:28;3.27;;;1.40;;
17173;SDS011;8702;48.130;-1.696;2023-04-15T12:40:55;5.47;;;1.80;;
17173;SDS011;8702;48.130;-1.696;2023-04-15T12:43:24;5.73;;;1.23;;
17173;SDS011;8702;48.130;-1.696;2023-04-15T12:45:51;2.60;;;1.40;;
17173;SDS011;8702;48.130;-1.696;2023-04-15T12:48:18;3.73;;;1.47;;
17173;SDS011;8702;48.130;-1.696;2023-04-15T12:50:46;3.17;;;1.17;;
17173;SDS011;8702;48.130;-1.696;2023-04-15T12:53:13;6.27;;;1.50;;
17173;SDS011;8702;48.130;-1.696;2023-04-15T12:55:40;3.37;;;1.40;;
17173;SDS011;8702;48.130;-1.696;2023-04-15T12:58:07;3.43;;;1.33;;
17173;SDS011;8702;48.130;-1.696;2023-04-15T13:00:35;5.13;;;1.43;;
17173;SDS011;8702;48.130;-1.696;2023-04-15T13:03:03;6.27;;;1.60;;
17173;SDS011;8702;48.130;-1.696;2023-04-15T13:05:30;3.27;;;1.40;;
17173;SDS011;8702;48.130;-1.696;2023-04-15T13:07:58;4.30;;;1.30;;
17173;SDS011;8702;48.130;-1.696;2023-04-15T13:10:25;4.03;;;1.33;;
17173;SDS011;8702;48.130;-1.696;2023-04-15T13:12:52;3.40;;;1.10;;
17173;SDS011;8702;48.130;-1.696;2023-04-15T13:15:20;6.07;;;1.50;;
17173;SDS011;8702;48.130;-1.696;2023-04-15T13:17:47;5.60;;;1.37;;
17173;SDS011;8702;48.130;-1.696;2023-04-15T13:20:15;3.67;;;1.20;;
17173;SDS011;8702;48.130;-1.696;2023-04-15T13:22:42;4.00;;;1.50;;
17173;SDS011;8702;48.130;-1.696;2023-04-15T13:25:11;6.93;;;1.53;;
17173;SDS011;8702;48.130;-1.696;2023-04-15T13:27:38;2.77;;;1.30;;
17173;SDS011;8702;48.130;-1.696;2023-04-15T13:30:05;3.67;;;1.20;;
17173;SDS011;8702;48.130;-1.696;2023-04-15T13:32:33;4.37;;;1.63;;
17173;SDS011;8702;48.130;-1.696;2023-04-15T13:35:00;3.53;;;1.33;;
17173;SDS011;8702;48.130;-1.696;2023-04-15T13:37:27;4.20;;;1.40;;
17173;SDS011;8702;48.130;-1.696;2023-04-15T13:39:56;6.07;;;1.30;;
17173;SDS011;8702;48.130;-1.696;2023-04-15T13:42:24;2.33;;;1.50;;
17173;SDS011;8702;48.130;-1.696;2023-04-15T13:44:51;2.93;;;1.40;;
17173;SDS011;8702;48.130;-1.696;2023-04-15T13:47:18;3.13;;;1.40;;
17173;SDS011;8702;48.130;-1.696;2023-04-15T13:49:46;2.63;;;1.20;;
17173;SDS011;8702;48.130;-1.696;2023-04-15T13:52:13;1.90;;;1.10;;
17173;SDS011;8702;48.130;-1.696;2023-04-15T13:54:40;3.37;;;1.27;;
17173;SDS011;8702;48.130;-1.696;2023-04-15T13:57:07;3.77;;;1.13;;
17173;SDS011;8702;48.130;-1.696;2023-04-15T13:59:35;6.10;;;1.50;;
17173;SDS011;8702;48.130;-1.696;2023-04-15T14:02:02;3.00;;;1.20;;
17173;SDS011;8702;48.130;-1.696;2023-04-15T14:04:29;3.10;;;1.27;;
17173;SDS011;8702;48.130;-1.696;2023-04-15T14:06:56;4.13;;;1.37;;
17173;SDS011;8702;48.130;-1.696;2023-04-15T14:09:23;1.93;;;1.17;;
17173;SDS011;8702;48.130;-1.696;2023-04-15T14:11:50;4.83;;;1.30;;
17173;SDS011;8702;48.130;-1.696;2023-04-15T14:14:17;2.83;;;1.20;;
17173;SDS011;8702;48.130;-1.696;2023-04-15T14:16:46;4.30;;;1.10;;
17173;SDS011;8702;48.130;-1.696;2023-04-15T14:19:13;4.90;;;1.50;;
17173;SDS011;8702;48.130;-1.696;2023-04-15T14:21:40;4.03;;;1.57;;
17173;SDS011;8702;48.130;-1.696;2023-04-15T14:24:07;4.20;;;1.10;;
17173;SDS011;8702;48.130;-1.696;2023-04-15T14:26:34;4.23;;;1.20;;
17173;SDS011;8702;48.130;-1.696;2023-04-15T14:29:01;3.77;;;1.30;;
17173;SDS011;8702;48.130;-1.696;2023-04-15T14:31:28;2.00;;;1.17;;
17173;SDS011;8702;48.130;-1.696;2023-04-15T14:33:56;2.20;;;1.17;;
17173;SDS011;8702;48.130;-1.696;2023-04-15T14:36:23;1.43;;;1.00;;
17173;SDS011;8702;48.130;-1.696;2023-04-15T14:38:50;2.43;;;1.03;;
17173;SDS011;8702;48.130;-1.696;2023-04-15T14:41:17;5.53;;;1.40;;
17173;SDS011;8702;48.130;-1.696;2023-04-15T14:43:44;2.17;;;1.10;;
17173;SDS011;8702;48.130;-1.696;2023-04-15T14:46:13;3.53;;;1.10;;
17173;SDS011;8702;48.130;-1.696;2023-04-15T14:48:40;3.07;;;1.07;;
17173;SDS011;8702;48.130;-1.696;2023-04-15T14:51:09;2.00;;;0.90;;
17173;SDS011;8702;48.130;-1.696;2023-04-15T14:53:36;1.73;;;1.07;;
17173;SDS011;8702;48.130;-1.696;2023-04-15T14:56:03;1.77;;;1.03;;
17173;SDS011;8702;48.130;-1.696;2023-04-15T14:58:30;3.10;;;1.30;;
17173;SDS011;8702;48.130;-1.696;2023-04-15T15:00:57;3.43;;;1.20;;
17173;SDS011;8702;48.130;-1.696;2023-04-15T15:03:25;2.53;;;1.20;;
17173;SDS011;8702;48.130;-1.696;2023-04-15T15:05:52;2.80;;;1.40;;
17173;SDS011;8702;48.130;-1.696;2023-04-15T15:08:23;2.93;;;1.27;;
17173;SDS011;8702;48.130;-1.696;2023-04-15T15:10:50;2.13;;;1.10;;
17173;SDS011;8702;48.130;-1.696;2023-04-15T15:13:17;3.90;;;1.10;;
17173;SDS011;8702;48.130;-1.696;2023-04-15T15:15:44;3.77;;;1.03;;
17173;SDS011;8702;48.130;-1.696;2023-04-15T15:18:13;2.37;;;0.87;;
17173;SDS011;8702;48.130;-1.696;2023-04-15T15:20:40;2.47;;;1.10;;
17173;SDS011;8702;48.130;-1.696;2023-04-15T15:23:08;2.17;;;1.00;;
17173;SDS011;8702;48.130;-1.696;2023-04-15T15:25:36;1.13;;;0.80;;
17173;SDS011;8702;48.130;-1.696;2023-04-15T15:28:03;1.20;;;0.90;;
17173;SDS011;8702;48.130;-1.696;2023-04-15T15:30:30;2.87;;;0.97;;
17173;SDS011;8702;48.130;-1.696;2023-04-15T15:32:57;2.57;;;0.77;;
17173;SDS011;8702;48.130;-1.696;2023-04-15T15:35:24;3.80;;;1.20;;
17173;SDS011;8702;48.130;-1.696;2023-04-15T15:37:51;2.30;;;0.90;;
17173;SDS011;8702;48.130;-1.696;2023-04-15T15:40:19;3.30;;;1.10;;
17173;SDS011;8702;48.130;-1.696;2023-04-15T15:42:47;2.73;;;1.00;;
17173;SDS011;8702;48.130;-1.696;2023-04-15T15:45:15;2.77;;;0.90;;
17173;SDS011;8702;48.130;-1.696;2023-04-15T15:47:42;1.47;;;1.00;;
17173;SDS011;8702;48.130;-1.696;2023-04-15T15:50:09;2.60;;;0.90;;
17173;SDS011;8702;48.130;-1.696;2023-04-15T15:52:38;2.67;;;0.93;;
17173;SDS011;8702;48.130;-1.696;2023-04-15T15:55:05;3.90;;;0.90;;
17173;SDS011;8702;48.130;-1.696;2023-04-15T15:57:33;2.63;;;1.10;;
17173;SDS011;8702;48.130;-1.696;2023-04-15T16:00:02;2.13;;;0.90;;
17173;SDS011;8702;48.130;-1.696;2023-04-15T16:02:29;2.13;;;0.90;;
17173;SDS011;8702;48.130;-1.696;2023-04-15T16:04:57;2.83;;;1.20;;
17173;SDS011;8702;48.130;-1.696;2023-04-15T16:07:24;1.43;;;0.90;;
17173;SDS011;8702;48.130;-1.696;2023-04-15T16:09:51;2.63;;;0.80;;
17173;SDS011;8702;48.130;-1.696;2023-04-15T16:12:18;1.10;;;1.00;;
17173;SDS011;8702;48.130;-1.696;2023-04-15T16:14:45;3.33;;;1.27;;
17173;SDS011;8702;48.130;-1.696;2023-04-15T16:17:13;2.87;;;1.10;;
17173;SDS011;8702;48.130;-1.696;2023-04-15T16:19:40;3.13;;;0.80;;
17173;SDS011;8702;48.130;-1.696;2023-04-15T16:22:07;0.87;;;0.70;;
17173;SDS011;8702;48.130;-1.696;2023-04-15T16:24:34;1.77;;;0.90;;
17173;SDS011;8702;48.130;-1.696;2023-04-15T16:27:02;1.53;;;0.73;;
17173;SDS011;8702;48.130;-1.696;2023-04-15T16:29:29;1.90;;;0.83;;
17173;SDS011;8702;48.130;-1.696;2023-04-15T16:31:56;2.83;;;0.70;;
17173;SDS011;8702;48.130;-1.696;2023-04-15T16:34:24;1.90;;;1.00;;
17173;SDS011;8702;48.130;-1.696;2023-04-15T16:36:51;2.53;;;1.00;;
17173;SDS011;8702;48.130;-1.696;2023-04-15T16:39:18;1.33;;;0.80;;
17173;SDS011;8702;48.130;-1.696;2023-04-15T16:41:45;2.53;;;0.90;;
17173;SDS011;8702;48.130;-1.696;2023-04-15T16:44:12;3.80;;;1.20;;
17173;SDS011;8702;48.130;-1.696;2023-04-15T16:46:38;1.10;;;0.70;;
17173;SDS011;8702;48.130;-1.696;2023-04-15T16:49:05;2.17;;;0.90;;
17173;SDS011;8702;48.130;-1.696;2023-04-15T16:51:34;2.20;;;1.00;;
17173;SDS011;8702;48.130;-1.696;2023-04-15T16:54:01;1.73;;;0.97;;
17173;SDS011;8702;48.130;-1.696;2023-04-15T16:56:28;0.87;;;0.77;;
17173;SDS011;8702;48.130;-1.696;2023-04-15T16:58:54;2.07;;;1.00;;
17173;SDS011;8702;48.130;-1.696;2023-04-15T17:01:21;3.87;;;1.20;;
17173;SDS011;8702;48.130;-1.696;2023-04-15T17:03:48;3.73;;;1.17;;
17173;SDS011;8702;48.130;-1.696;2023-04-15T17:06:16;1.40;;;1.03;;
17173;SDS011;8702;48.130;-1.696;2023-04-15T17:08:44;3.90;;;1.40;;
17173;SDS011;8702;48.130;-1.696;2023-04-15T17:11:11;3.57;;;1.00;;
17173;SDS011;8702;48.130;-1.696;2023-04-15T17:13:39;0.90;;;0.90;;
17173;SDS011;8702;48.130;-1.696;2023-04-15T17:16:06;3.10;;;1.20;;
17173;SDS011;8702;48.130;-1.696;2023-04-15T17:18:33;3.33;;;1.30;;
17173;SDS011;8702;48.130;-1.696;2023-04-15T17:21:00;1.43;;;1.07;;
17173;SDS011;8702;48.130;-1.696;2023-04-15T17:23:27;4.17;;;1.23;;
17173;SDS011;8702;48.130;-1.696;2023-04-15T17:25:56;3.00;;;1.17;;
17173;SDS011;8702;48.130;-1.696;2023-04-15T17:28:23;2.37;;;1.30;;
17173;SDS011;8702;48.130;-1.696;2023-04-15T17:30:50;4.27;;;1.47;;
17173;SDS011;8702;48.130;-1.696;2023-04-15T17:33:17;4.47;;;1.37;;
17173;SDS011;8702;48.130;-1.696;2023-04-15T17:35:44;4.40;;;1.23;;
17173;SDS011;8702;48.130;-1.696;2023-04-15T17:38:11;2.27;;;1.30;;
17173;SDS011;8702;48.130;-1.696;2023-04-15T17:40:38;3.23;;;1.40;;
17173;SDS011;8702;48.130;-1.696;2023-04-15T17:43:06;3.10;;;1.20;;
17173;SDS011;8702;48.130;-1.696;2023-04-15T17:45:33;3.63;;;1.17;;
17173;SDS011;8702;48.130;-1.696;2023-04-15T17:48:00;1.77;;;1.13;;
17173;SDS011;8702;48.130;-1.696;2023-04-15T17:50:27;3.53;;;1.30;;
17173;SDS011;8702;48.130;-1.696;2023-04-15T17:52:55;6.70;;;1.33;;
17173;SDS011;8702;48.130;-1.696;2023-04-15T17:55:22;4.00;;;1.00;;
17173;SDS011;8702;48.130;-1.696;2023-04-15T17:57:49;3.13;;;1.20;;
17173;SDS011;8702;48.130;-1.696;2023-04-15T18:00:17;3.07;;;1.20;;
17173;SDS011;8702;48.130;-1.696;2023-04-15T18:02:44;4.40;;;1.07;;
17173;SDS011;8702;48.130;-1.696;2023-04-15T18:05:12;3.27;;;1.20;;
17173;SDS011;8702;48.130;-1.696;2023-04-15T18:07:39;3.43;;;1.10;;
17173;SDS011;8702;48.130;-1.696;2023-04-15T18:10:07;3.23;;;1.40;;
17173;SDS011;8702;48.130;-1.696;2023-04-15T18:12:35;2.77;;;1.20;;
17173;SDS011;8702;48.130;-1.696;2023-04-15T18:15:02;2.27;;;1.33;;
17173;SDS011;8702;48.130;-1.696;2023-04-15T18:17:31;4.13;;;1.67;;
17173;SDS011;8702;48.130;-1.696;2023-04-15T18:19:58;4.50;;;1.43;;
17173;SDS011;8702;48.130;-1.696;2023-04-15T18:22:25;4.93;;;1.30;;
17173;SDS011;8702;48.130;-1.696;2023-04-15T18:24:52;3.53;;;1.50;;
17173;SDS011;8702;48.130;-1.696;2023-04-15T18:27:18;3.23;;;1.20;;
17173;SDS011;8702;48.130;-1.696;2023-04-15T18:29:45;3.03;;;1.53;;
17173;SDS011;8702;48.130;-1.696;2023-04-15T18:32:12;3.20;;;1.40;;
17173;SDS011;8702;48.130;-1.696;2023-04-15T18:34:41;4.50;;;1.47;;
17173;SDS011;8702;48.130;-1.696;2023-04-15T18:37:08;2.20;;;1.23;;
17173;SDS011;8702;48.130;-1.696;2023-04-15T18:39:35;2.67;;;1.40;;
17173;SDS011;8702;48.130;-1.696;2023-04-15T18:42:02;5.30;;;1.63;;
17173;SDS011;8702;48.130;-1.696;2023-04-15T18:44:29;4.30;;;1.80;;
17173;SDS011;8702;48.130;-1.696;2023-04-15T18:46:56;2.63;;;1.40;;
17173;SDS011;8702;48.130;-1.696;2023-04-15T18:49:24;2.80;;;1.47;;
17173;SDS011;8702;48.130;-1.696;2023-04-15T18:51:53;4.00;;;1.60;;
17173;SDS011;8702;48.130;-1.696;2023-04-15T18:54:20;3.43;;;1.43;;
17173;SDS011;8702;48.130;-1.696;2023-04-15T18:56:47;3.87;;;1.50;;
17173;SDS011;8702;48.130;-1.696;2023-04-15T18:59:13;3.43;;;1.60;;
17173;SDS011;8702;48.130;-1.696;2023-04-15T19:01:40;4.03;;;1.77;;
17173;SDS011;8702;48.130;-1.696;2023-04-15T19:04:08;4.17;;;1.83;;
17173;SDS011;8702;48.130;-1.696;2023-04-15T19:06:37;6.90;;;1.83;;
17173;SDS011;8702;48.130;-1.696;2023-04-15T19:09:05;3.53;;;1.50;;
17173;SDS011;8702;48.130;-1.696;2023-04-15T19:11:32;5.13;;;1.80;;
17173;SDS011;8702;48.130;-1.696;2023-04-15T19:13:59;5.83;;;2.03;;
17173;SDS011;8702;48.130;-1.696;2023-04-15T19:16:26;4.00;;;1.70;;
17173;SDS011;8702;48.130;-1.696;2023-04-15T19:18:53;4.03;;;1.70;;
17173;SDS011;8702;48.130;-1.696;2023-04-15T19:21:20;2.30;;;1.80;;
17173;SDS011;8702;48.130;-1.696;2023-04-15T19:23:47;2.73;;;1.70;;
17173;SDS011;8702;48.130;-1.696;2023-04-15T19:26:16;6.30;;;2.07;;
17173;SDS011;8702;48.130;-1.696;2023-04-15T19:28:43;6.50;;;2.20;;
17173;SDS011;8702;48.130;-1.696;2023-04-15T19:31:10;4.60;;;1.83;;
17173;SDS011;8702;48.130;-1.696;2023-04-15T19:33:37;5.07;;;2.03;;
17173;SDS011;8702;48.130;-1.696;2023-04-15T19:36:05;4.93;;;1.93;;
17173;SDS011;8702;48.130;-1.696;2023-04-15T19:38:33;4.80;;;2.00;;
17173;SDS011;8702;48.130;-1.696;2023-04-15T19:41:01;5.63;;;2.10;;
17173;SDS011;8702;48.130;-1.696;2023-04-15T19:43:31;5.00;;;2.50;;
17173;SDS011;8702;48.130;-1.696;2023-04-15T19:45:58;3.97;;;1.90;;
17173;SDS011;8702;48.130;-1.696;2023-04-15T19:48:28;5.07;;;1.80;;
17173;SDS011;8702;48.130;-1.696;2023-04-15T19:50:55;6.40;;;2.00;;
17173;SDS011;8702;48.130;-1.696;2023-04-15T19:53:24;3.20;;;1.70;;
17173;SDS011;8702;48.130;-1.696;2023-04-15T19:55:51;4.43;;;1.80;;
17173;SDS011;8702;48.130;-1.696;2023-04-15T19:58:18;4.63;;;1.97;;
17173;SDS011;8702;48.130;-1.696;2023-04-15T20:00:47;5.60;;;2.13;;
17173;SDS011;8702;48.130;-1.696;2023-04-15T20:03:14;4.30;;;2.00;;
17173;SDS011;8702;48.130;-1.696;2023-04-15T20:05:42;2.87;;;1.90;;
17173;SDS011;8702;48.130;-1.696;2023-04-15T20:08:12;5.53;;;2.57;;
17173;SDS011;8702;48.130;-1.696;2023-04-15T20:10:42;7.20;;;2.80;;
17173;SDS011;8702;48.130;-1.696;2023-04-15T20:13:15;5.60;;;2.30;;
17173;SDS011;8702;48.130;-1.696;2023-04-15T20:15:42;6.83;;;2.70;;
17173;SDS011;8702;48.130;-1.696;2023-04-15T20:18:11;4.37;;;2.50;;
17173;SDS011;8702;48.130;-1.696;2023-04-15T20:20:39;6.13;;;2.43;;
17173;SDS011;8702;48.130;-1.696;2023-04-15T20:23:06;5.70;;;2.77;;
17173;SDS011;8702;48.130;-1.696;2023-04-15T20:25:37;7.73;;;2.53;;
17173;SDS011;8702;48.130;-1.696;2023-04-15T20:28:05;4.17;;;2.63;;
17173;SDS011;8702;48.130;-1.696;2023-04-15T20:30:36;7.80;;;3.07;;
17173;SDS011;8702;48.130;-1.696;2023-04-15T20:33:05;4.93;;;2.93;;
17173;SDS011;8702;48.130;-1.696;2023-04-15T20:35:37;3.60;;;2.70;;
17173;SDS011;8702;48.130;-1.696;2023-04-15T20:38:07;8.30;;;3.30;;
17173;SDS011;8702;48.130;-1.696;2023-04-15T20:40:35;7.37;;;3.30;;
17173;SDS011;8702;48.130;-1.696;2023-04-15T20:43:04;6.70;;;3.37;;
17173;SDS011;8702;48.130;-1.696;2023-04-15T20:45:31;8.97;;;3.10;;
17173;SDS011;8702;48.130;-1.696;2023-04-15T20:47:58;6.77;;;2.93;;
17173;SDS011;8702;48.130;-1.696;2023-04-15T20:50:25;7.13;;;3.03;;
17173;SDS011;8702;48.130;-1.696;2023-04-15T20:52:55;4.93;;;3.07;;
17173;SDS011;8702;48.130;-1.696;2023-04-15T20:55:22;8.10;;;3.07;;
17173;SDS011;8702;48.130;-1.696;2023-04-15T20:57:49;9.37;;;3.13;;
17173;SDS011;8702;48.130;-1.696;2023-04-15T21:00:21;6.23;;;2.77;;
17173;SDS011;8702;48.130;-1.696;2023-04-15T21:02:48;6.20;;;3.00;;
17173;SDS011;8702;48.130;-1.696;2023-04-15T21:05:16;5.73;;;2.57;;
17173;SDS011;8702;48.130;-1.696;2023-04-15T21:07:43;7.33;;;2.73;;
17173;SDS011;8702;48.130;-1.696;2023-04-15T21:10:14;6.00;;;2.57;;
17173;SDS011;8702;48.130;-1.696;2023-04-15T21:12:41;7.37;;;2.80;;
17173;SDS011;8702;48.130;-1.696;2023-04-15T21:15:08;7.70;;;2.63;;
17173;SDS011;8702;48.130;-1.696;2023-04-15T21:17:36;7.33;;;3.00;;
17173;SDS011;8702;48.130;-1.696;2023-04-15T21:20:06;7.43;;;2.90;;
17173;SDS011;8702;48.130;-1.696;2023-04-15T21:22:33;4.90;;;2.57;;
17173;SDS011;8702;48.130;-1.696;2023-04-15T21:25:04;5.87;;;2.60;;
17173;SDS011;8702;48.130;-1.696;2023-04-15T21:27:33;4.70;;;2.90;;
17173;SDS011;8702;48.130;-1.696;2023-04-15T21:30:00;6.53;;;3.13;;
17173;SDS011;8702;48.130;-1.696;2023-04-15T21:32:28;6.07;;;2.70;;
17173;SDS011;8702;48.130;-1.696;2023-04-15T21:34:56;6.77;;;3.07;;
17173;SDS011;8702;48.130;-1.696;2023-04-15T21:37:23;4.53;;;2.90;;
17173;SDS011;8702;48.130;-1.696;2023-04-15T21:39:50;5.23;;;2.80;;
17173;SDS011;8702;48.130;-1.696;2023-04-15T21:42:17;11.07;;;2.90;;
17173;SDS011;8702;48.130;-1.696;2023-04-15T21:44:46;4.33;;;2.67;;
17173;SDS011;8702;48.130;-1.696;2023-04-15T21:47:13;9.60;;;3.40;;
17173;SDS011;8702;48.130;-1.696;2023-04-15T21:49:40;5.93;;;3.00;;
17173;SDS011;8702;48.130;-1.696;2023-04-15T21:52:07;7.73;;;3.17;;
17173;SDS011;8702;48.130;-1.696;2023-04-15T21:54:35;5.50;;;3.00;;
17173;SDS011;8702;48.130;-1.696;2023-04-15T21:57:02;5.57;;;2.90;;
17173;SDS011;8702;48.130;-1.696;2023-04-15T21:59:29;8.90;;;3.23;;
17173;SDS011;8702;48.130;-1.696;2023-04-15T22:01:58;5.87;;;2.97;;
17173;SDS011;8702;48.130;-1.696;2023-04-15T22:04:25;4.07;;;2.87;;
17173;SDS011;8702;48.130;-1.696;2023-04-15T22:06:51;6.07;;;3.23;;
17173;SDS011;8702;48.130;-1.696;2023-04-15T22:09:25;6.20;;;3.10;;
17173;SDS011;8702;48.130;-1.696;2023-04-15T22:11:52;6.70;;;3.70;;
17173;SDS011;8702;48.130;-1.696;2023-04-15T22:14:19;7.33;;;3.60;;
17173;SDS011;8702;48.130;-1.696;2023-04-15T22:16:46;7.87;;;3.80;;
17173;SDS011;8702;48.130;-1.696;2023-04-15T22:19:15;7.57;;;4.20;;
17173;SDS011;8702;48.130;-1.696;2023-04-15T22:21:41;6.87;;;3.53;;
17173;SDS011;8702;48.130;-1.696;2023-04-15T22:24:08;11.20;;;4.20;;
17173;SDS011;8702;48.130;-1.696;2023-04-15T22:26:35;7.67;;;4.03;;
17173;SDS011;8702;48.130;-1.696;2023-04-15T22:29:03;7.47;;;4.40;;
17173;SDS011;8702;48.130;-1.696;2023-04-15T22:31:30;9.00;;;4.17;;
17173;SDS011;8702;48.130;-1.696;2023-04-15T22:33:57;6.80;;;4.23;;
17173;SDS011;8702;48.130;-1.696;2023-04-15T22:36:25;8.33;;;3.93;;
17173;SDS011;8702;48.130;-1.696;2023-04-15T22:38:55;7.93;;;3.80;;
17173;SDS011;8702;48.130;-1.696;2023-04-15T22:41:22;6.30;;;3.70;;
17173;SDS011;8702;48.130;-1.696;2023-04-15T22:43:49;7.37;;;3.50;;
17173;SDS011;8702;48.130;-1.696;2023-04-15T22:46:16;10.00;;;3.83;;
17173;SDS011;8702;48.130;-1.696;2023-04-15T22:48:43;8.07;;;3.37;;
17173;SDS011;8702;48.130;-1.696;2023-04-15T22:51:10;6.67;;;3.40;;
17173;SDS011;8702;48.130;-1.696;2023-04-15T22:53:38;5.20;;;3.00;;